sensor_id;sensor_type;location;lat;lon;timestamp;pressure;altitude;pressure_sealevel;temperature;humidity
20013;BME280;10167;42.852;23.042;2023-02-11T00:02:19;96533.75;;;-3.39;100.00
20013;BME280;10167;42.852;23.042;2023-02-11T00:04:50;96542.19;;;-3.37;100.00
20013;BME280;10167;42.852;23.042;2023-02-11T00:07:19;96531.91;;;-3.49;100.00
20013;BME280;10167;42.852;23.042;2023-02-11T00:09:48;96537.75;;;-3.58;100.00
20013;BME280;10167;42.852;23.042;2023-02-11T00:12:17;96542.56;;;-3.65;100.00
20013;BME280;10167;42.852;23.042;2023-02-11T00:14:48;96540.63;;;-3.74;100.00
20013;BME280;10167;42.852;23.042;2023-02-11T00:17:17;96543.22;;;-3.74;100.00
20013;BME280;10167;42.852;23.042;2023-02-11T00:19:48;96536.59;;;-3.78;100.00
20013;BME280;10167;42.852;23.042;2023-02-11T00:22:17;96538.97;;;-3.75;100.00
20013;BME280;10167;42.852;23.042;2023-02-11T00:24:46;96536.28;;;-3.74;100.00
20013;BME280;10167;42.852;23.042;2023-02-11T00:27:15;96537.03;;;-3.84;100.00
20013;BME280;10167;42.852;23.042;2023-02-11T00:29:45;96530.78;;;-3.82;100.00
20013;BME280;10167;42.852;23.042;2023-02-11T00:32:15;96536.31;;;-3.86;100.00
20013;BME280;10167;42.852;23.042;2023-02-11T00:34:45;96537.91;;;-4.09;100.00
20013;BME280;10167;42.852;23.042;2023-02-11T00:37:15;96532.91;;;-3.87;100.00
20013;BME280;10167;42.852;23.042;2023-02-11T00:39:45;96534.97;;;-3.92;100.00
20013;BME280;10167;42.852;23.042;2023-02-11T00:42:14;96539.63;;;-3.84;100.00
20013;BME280;10167;42.852;23.042;2023-02-11T00:44:44;96527.16;;;-3.79;100.00
20013;BME280;10167;42.852;23.042;2023-02-11T00:47:18;96528.66;;;-3.88;100.00
20013;BME280;10167;42.852;23.042;2023-02-11T00:49:47;96531.44;;;-3.91;100.00
20013;BME280;10167;42.852;23.042;2023-02-11T00:52:16;96519.66;;;-3.95;100.00
20013;BME280;10167;42.852;23.042;2023-02-11T00:54:45;96524.03;;;-3.95;100.00
20013;BME280;10167;42.852;23.042;2023-02-11T00:57:14;96519.06;;;-3.98;100.00
20013;BME280;10167;42.852;23.042;2023-02-11T00:59:43;96524.63;;;-3.92;100.00
20013;BME280;10167;42.852;23.042;2023-02-11T01:02:13;96537.56;;;-3.92;100.00
20013;BME280;10167;42.852;23.042;2023-02-11T01:04:43;96540.59;;;-3.98;100.00
20013;BME280;10167;42.852;23.042;2023-02-11T01:07:12;96539.03;;;-4.00;100.00
20013;BME280;10167;42.852;23.042;2023-02-11T01:09:41;96534.47;;;-3.97;100.00
20013;BME280;10167;42.852;23.042;2023-02-11T01:12:10;96533.41;;;-3.94;100.00
20013;BME280;10167;42.852;23.042;2023-02-11T01:14:40;96535.50;;;-3.99;100.00
20013;BME280;10167;42.852;23.042;2023-02-11T01:17:09;96538.31;;;-4.03;100.00
20013;BME280;10167;42.852;23.042;2023-02-11T01:19:38;96530.06;;;-4.08;100.00
20013;BME280;10167;42.852;23.042;2023-02-11T01:22:09;96525.09;;;-4.11;100.00
20013;BME280;10167;42.852;23.042;2023-02-11T01:24:38;96532.31;;;-4.03;100.00
20013;BME280;10167;42.852;23.042;2023-02-11T01:27:07;96527.22;;;-4.05;100.00
20013;BME280;10167;42.852;23.042;2023-02-11T01:29:36;96525.25;;;-4.01;100.00
20013;BME280;10167;42.852;23.042;2023-02-11T01:32:06;96526.28;;;-4.04;100.00
20013;BME280;10167;42.852;23.042;2023-02-11T01:34:35;96523.22;;;-4.09;100.00
20013;BME280;10167;42.852;23.042;2023-02-11T01:37:04;96511.72;;;-4.05;100.00
20013;BME280;10167;42.852;23.042;2023-02-11T01:39:35;96504.88;;;-4.06;100.00
20013;BME280;10167;42.852;23.042;2023-02-11T01:42:05;96508.63;;;-4.10;100.00
20013;BME280;10167;42.852;23.042;2023-02-11T01:44:36;96512.34;;;-4.14;100.00
20013;BME280;10167;42.852;23.042;2023-02-11T01:47:05;96504.63;;;-4.26;100.00
20013;BME280;10167;42.852;23.042;2023-02-11T01:49:37;96502.75;;;-4.24;100.00
20013;BME280;10167;42.852;23.042;2023-02-11T01:52:08;96507.44;;;-4.29;100.00
20013;BME280;10167;42.852;23.042;2023-02-11T01:54:41;96506.28;;;-4.38;100.00
20013;BME280;10167;42.852;23.042;2023-02-11T01:57:31;96501.03;;;-4.36;100.00
20013;BME280;10167;42.852;23.042;2023-02-11T02:00:10;96505.47;;;-4.39;100.00
20013;BME280;10167;42.852;23.042;2023-02-11T02:02:45;96506.09;;;-4.35;100.00
20013;BME280;10167;42.852;23.042;2023-02-11T02:05:23;96497.59;;;-4.37;100.00
20013;BME280;10167;42.852;23.042;2023-02-11T02:08:05;96500.72;;;-4.32;100.00
20013;BME280;10167;42.852;23.042;2023-02-11T02:10:40;96495.13;;;-4.39;100.00
20013;BME280;10167;42.852;23.042;2023-02-11T02:13:10;96499.72;;;-4.42;100.00
20013;BME280;10167;42.852;23.042;2023-02-11T02:15:44;96506.84;;;-4.46;100.00
20013;BME280;10167;42.852;23.042;2023-02-11T02:18:32;96508.78;;;-4.49;100.00
20013;BME280;10167;42.852;23.042;2023-02-11T02:27:39;96505.00;;;-4.56;100.00
20013;BME280;10167;42.852;23.042;2023-02-11T02:30:29;96499.09;;;-4.58;100.00
20013;BME280;10167;42.852;23.042;2023-02-11T02:33:28;96501.78;;;-4.60;100.00
20013;BME280;10167;42.852;23.042;2023-02-11T02:36:06;96494.84;;;-4.59;100.00
20013;BME280;10167;42.852;23.042;2023-02-11T02:38:39;96490.13;;;-4.65;100.00
20013;BME280;10167;42.852;23.042;2023-02-11T02:41:13;96498.59;;;-4.63;100.00
20013;BME280;10167;42.852;23.042;2023-02-11T02:43:46;96501.19;;;-4.63;100.00
20013;BME280;10167;42.852;23.042;2023-02-11T02:46:19;96496.22;;;-4.66;100.00
20013;BME280;10167;42.852;23.042;2023-02-11T02:48:51;96497.88;;;-4.65;100.00
20013;BME280;10167;42.852;23.042;2023-02-11T02:51:41;96492.91;;;-4.68;100.00
20013;BME280;10167;42.852;23.042;2023-02-11T02:57:23;96496.31;;;-4.68;100.00
20013;BME280;10167;42.852;23.042;2023-02-11T03:00:07;96490.75;;;-4.74;100.00
20013;BME280;10167;42.852;23.042;2023-02-11T03:02:47;96496.00;;;-4.76;100.00
20013;BME280;10167;42.852;23.042;2023-02-11T03:05:24;96491.44;;;-4.72;100.00
20013;BME280;10167;42.852;23.042;2023-02-11T03:08:04;96493.31;;;-4.74;100.00
20013;BME280;10167;42.852;23.042;2023-02-11T03:10:37;96487.44;;;-4.77;100.00
20013;BME280;10167;42.852;23.042;2023-02-11T03:13:08;96496.22;;;-4.79;100.00
20013;BME280;10167;42.852;23.042;2023-02-11T03:15:41;96488.34;;;-4.78;100.00
20013;BME280;10167;42.852;23.042;2023-02-11T03:18:15;96486.91;;;-4.82;100.00
20013;BME280;10167;42.852;23.042;2023-02-11T03:20:49;96480.91;;;-4.82;100.00
20013;BME280;10167;42.852;23.042;2023-02-11T03:23:24;96492.06;;;-4.82;100.00
20013;BME280;10167;42.852;23.042;2023-02-11T03:25:57;96482.38;;;-4.91;100.00
20013;BME280;10167;42.852;23.042;2023-02-11T03:28:31;96481.97;;;-4.97;100.00
20013;BME280;10167;42.852;23.042;2023-02-11T03:31:09;96487.94;;;-4.97;100.00
20013;BME280;10167;42.852;23.042;2023-02-11T03:33:49;96479.56;;;-4.88;100.00
20013;BME280;10167;42.852;23.042;2023-02-11T03:36:23;96493.81;;;-4.95;100.00
20013;BME280;10167;42.852;23.042;2023-02-11T03:38:57;96490.53;;;-4.97;100.00
20013;BME280;10167;42.852;23.042;2023-02-11T03:41:29;96485.03;;;-5.05;100.00
20013;BME280;10167;42.852;23.042;2023-02-11T03:44:00;96489.81;;;-4.99;100.00
20013;BME280;10167;42.852;23.042;2023-02-11T03:46:32;96484.75;;;-5.00;100.00
20013;BME280;10167;42.852;23.042;2023-02-11T03:49:05;96488.06;;;-4.98;100.00
20013;BME280;10167;42.852;23.042;2023-02-11T03:51:39;96487.22;;;-4.99;100.00
20013;BME280;10167;42.852;23.042;2023-02-11T03:54:12;96489.19;;;-5.02;100.00
20013;BME280;10167;42.852;23.042;2023-02-11T03:56:47;96491.56;;;-4.99;100.00
20013;BME280;10167;42.852;23.042;2023-02-11T03:59:17;96480.41;;;-5.00;100.00
20013;BME280;10167;42.852;23.042;2023-02-11T04:01:46;96476.25;;;-5.02;100.00
20013;BME280;10167;42.852;23.042;2023-02-11T04:04:16;96487.13;;;-4.97;100.00
20013;BME280;10167;42.852;23.042;2023-02-11T04:06:47;96481.22;;;-4.99;100.00
20013;BME280;10167;42.852;23.042;2023-02-11T04:09:16;96483.72;;;-4.98;100.00
20013;BME280;10167;42.852;23.042;2023-02-11T04:11:45;96478.94;;;-4.91;100.00
20013;BME280;10167;42.852;23.042;2023-02-11T04:14:14;96474.50;;;-4.89;100.00
20013;BME280;10167;42.852;23.042;2023-02-11T04:16:44;96477.00;;;-4.88;100.00
20013;BME280;10167;42.852;23.042;2023-02-11T04:19:13;96475.53;;;-4.79;100.00
20013;BME280;10167;42.852;23.042;2023-02-11T04:21:41;96483.81;;;-4.74;100.00
20013;BME280;10167;42.852;23.042;2023-02-11T04:24:12;96481.00;;;-4.84;100.00
20013;BME280;10167;42.852;23.042;2023-02-11T04:26:41;96493.31;;;-4.74;100.00
20013;BME280;10167;42.852;23.042;2023-02-11T04:29:10;96490.13;;;-4.78;100.00
20013;BME280;10167;42.852;23.042;2023-02-11T04:31:40;96487.94;;;-4.71;100.00
20013;BME280;10167;42.852;23.042;2023-02-11T04:34:09;96483.00;;;-4.74;100.00
20013;BME280;10167;42.852;23.042;2023-02-11T04:36:39;96479.44;;;-4.73;100.00
20013;BME280;10167;42.852;23.042;2023-02-11T04:39:08;96480.81;;;-4.81;100.00
20013;BME280;10167;42.852;23.042;2023-02-11T04:41:39;96481.72;;;-4.82;100.00
20013;BME280;10167;42.852;23.042;2023-02-11T04:44:09;96483.00;;;-4.74;100.00
20013;BME280;10167;42.852;23.042;2023-02-11T04:46:39;96483.50;;;-4.82;100.00
20013;BME280;10167;42.852;23.042;2023-02-11T04:49:12;96486.91;;;-4.82;100.00
20013;BME280;10167;42.852;23.042;2023-02-11T04:51:42;96482.91;;;-4.86;100.00
20013;BME280;10167;42.852;23.042;2023-02-11T04:54:16;96472.03;;;-4.91;100.00
20013;BME280;10167;42.852;23.042;2023-02-11T04:56:46;96482.78;;;-4.97;100.00
20013;BME280;10167;42.852;23.042;2023-02-11T04:59:16;96482.97;;;-5.00;100.00
20013;BME280;10167;42.852;23.042;2023-02-11T05:01:45;96477.09;;;-5.02;100.00
20013;BME280;10167;42.852;23.042;2023-02-11T05:04:15;96475.34;;;-5.01;100.00
20013;BME280;10167;42.852;23.042;2023-02-11T05:06:46;96469.34;;;-5.02;100.00
20013;BME280;10167;42.852;23.042;2023-02-11T05:09:15;96464.28;;;-5.03;100.00
20013;BME280;10167;42.852;23.042;2023-02-11T05:11:47;96462.03;;;-5.08;100.00
20013;BME280;10167;42.852;23.042;2023-02-11T05:14:16;96464.06;;;-5.13;100.00
20013;BME280;10167;42.852;23.042;2023-02-11T05:16:45;96459.81;;;-5.14;100.00
20013;BME280;10167;42.852;23.042;2023-02-11T05:19:14;96457.53;;;-5.19;100.00
20013;BME280;10167;42.852;23.042;2023-02-11T05:21:43;96462.94;;;-5.22;100.00
20013;BME280;10167;42.852;23.042;2023-02-11T05:24:29;96456.59;;;-5.30;100.00
20013;BME280;10167;42.852;23.042;2023-02-11T05:27:00;96461.06;;;-5.32;100.00
20013;BME280;10167;42.852;23.042;2023-02-11T05:29:30;96464.84;;;-5.38;100.00
20013;BME280;10167;42.852;23.042;2023-02-11T05:31:59;96461.25;;;-5.35;100.00
20013;BME280;10167;42.852;23.042;2023-02-11T05:34:28;96462.28;;;-5.38;100.00
20013;BME280;10167;42.852;23.042;2023-02-11T05:36:57;96456.81;;;-5.46;100.00
20013;BME280;10167;42.852;23.042;2023-02-11T05:39:26;96466.69;;;-5.53;100.00
20013;BME280;10167;42.852;23.042;2023-02-11T05:41:56;96466.81;;;-5.54;100.00
20013;BME280;10167;42.852;23.042;2023-02-11T05:44:26;96468.66;;;-5.56;100.00
20013;BME280;10167;42.852;23.042;2023-02-11T05:46:55;96463.50;;;-5.56;100.00
20013;BME280;10167;42.852;23.042;2023-02-11T05:49:24;96465.34;;;-5.58;100.00
20013;BME280;10167;42.852;23.042;2023-02-11T05:51:53;96461.19;;;-5.61;100.00
20013;BME280;10167;42.852;23.042;2023-02-11T05:54:22;96456.56;;;-5.56;100.00
20013;BME280;10167;42.852;23.042;2023-02-11T05:56:51;96457.50;;;-5.57;100.00
20013;BME280;10167;42.852;23.042;2023-02-11T05:59:20;96461.03;;;-5.45;100.00
20013;BME280;10167;42.852;23.042;2023-02-11T06:01:51;96480.44;;;-5.39;100.00
20013;BME280;10167;42.852;23.042;2023-02-11T06:04:20;96476.31;;;-5.29;100.00
20013;BME280;10167;42.852;23.042;2023-02-11T06:06:49;96476.44;;;-5.18;100.00
20013;BME280;10167;42.852;23.042;2023-02-11T06:09:18;96473.47;;;-5.12;100.00
20013;BME280;10167;42.852;23.042;2023-02-11T06:11:48;96473.47;;;-4.99;100.00
20013;BME280;10167;42.852;23.042;2023-02-11T06:14:18;96476.91;;;-4.86;100.00
20013;BME280;10167;42.852;23.042;2023-02-11T06:16:47;96476.47;;;-4.80;100.00
20013;BME280;10167;42.852;23.042;2023-02-11T06:19:19;96481.44;;;-4.64;100.00
20013;BME280;10167;42.852;23.042;2023-02-11T06:21:48;96482.75;;;-4.59;100.00
20013;BME280;10167;42.852;23.042;2023-02-11T06:24:17;96484.41;;;-4.45;100.00
20013;BME280;10167;42.852;23.042;2023-02-11T06:27:07;96491.72;;;-4.39;100.00
20013;BME280;10167;42.852;23.042;2023-02-11T06:29:36;96479.09;;;-4.31;100.00
20013;BME280;10167;42.852;23.042;2023-02-11T06:32:05;96491.03;;;-4.17;100.00
20013;BME280;10167;42.852;23.042;2023-02-11T06:34:56;96492.59;;;-4.15;100.00
20013;BME280;10167;42.852;23.042;2023-02-11T06:37:25;96491.53;;;-3.99;100.00
20013;BME280;10167;42.852;23.042;2023-02-11T06:39:54;96492.00;;;-3.94;100.00
20013;BME280;10167;42.852;23.042;2023-02-11T06:42:23;96490.31;;;-3.83;100.00
20013;BME280;10167;42.852;23.042;2023-02-11T06:44:52;96495.22;;;-3.67;100.00
20013;BME280;10167;42.852;23.042;2023-02-11T06:47:22;96483.88;;;-3.53;100.00
20013;BME280;10167;42.852;23.042;2023-02-11T06:49:51;96490.19;;;-3.34;100.00
20013;BME280;10167;42.852;23.042;2023-02-11T06:52:25;96482.00;;;-3.16;100.00
20013;BME280;10167;42.852;23.042;2023-02-11T06:54:54;96486.41;;;-2.95;100.00
20013;BME280;10167;42.852;23.042;2023-02-11T06:57:24;96482.09;;;-2.72;100.00
20013;BME280;10167;42.852;23.042;2023-02-11T06:59:53;96477.75;;;-2.27;100.00
20013;BME280;10167;42.852;23.042;2023-02-11T07:02:23;96488.03;;;-1.71;100.00
20013;BME280;10167;42.852;23.042;2023-02-11T07:04:52;96488.00;;;-1.07;100.00
20013;BME280;10167;42.852;23.042;2023-02-11T07:07:21;96489.75;;;-0.66;100.00
20013;BME280;10167;42.852;23.042;2023-02-11T07:09:52;96490.53;;;-0.24;97.05
20013;BME280;10167;42.852;23.042;2023-02-11T07:12:21;96482.94;;;0.13;90.38
20013;BME280;10167;42.852;23.042;2023-02-11T07:14:50;96473.78;;;0.28;88.83
20013;BME280;10167;42.852;23.042;2023-02-11T07:17:19;96471.06;;;0.59;84.71
20013;BME280;10167;42.852;23.042;2023-02-11T07:19:48;96473.28;;;0.83;83.04
20013;BME280;10167;42.852;23.042;2023-02-11T07:22:18;96467.66;;;0.87;82.17
20013;BME280;10167;42.852;23.042;2023-02-11T07:24:47;96462.44;;;0.97;80.21
20013;BME280;10167;42.852;23.042;2023-02-11T07:27:17;96462.69;;;1.03;78.50
20013;BME280;10167;42.852;23.042;2023-02-11T07:29:47;96462.41;;;1.16;79.24
20013;BME280;10167;42.852;23.042;2023-02-11T07:32:16;96457.44;;;1.23;77.47
20013;BME280;10167;42.852;23.042;2023-02-11T07:34:45;96452.47;;;1.29;77.95
20013;BME280;10167;42.852;23.042;2023-02-11T07:37:15;96456.16;;;1.46;76.97
20013;BME280;10167;42.852;23.042;2023-02-11T07:39:45;96458.78;;;1.46;75.02
20013;BME280;10167;42.852;23.042;2023-02-11T07:42:14;96454.63;;;1.53;75.16
20013;BME280;10167;42.852;23.042;2023-02-11T07:44:46;96457.59;;;1.58;72.82
20013;BME280;10167;42.852;23.042;2023-02-11T07:47:17;96458.25;;;1.70;74.79
20013;BME280;10167;42.852;23.042;2023-02-11T07:49:45;96456.03;;;1.38;76.33
20013;BME280;10167;42.852;23.042;2023-02-11T07:52:15;96461.09;;;2.04;74.51
20013;BME280;10167;42.852;23.042;2023-02-11T07:54:47;96459.63;;;2.01;72.23
20013;BME280;10167;42.852;23.042;2023-02-11T07:57:16;96454.78;;;2.34;69.34
20013;BME280;10167;42.852;23.042;2023-02-11T07:59:47;96462.97;;;2.39;64.12
20013;BME280;10167;42.852;23.042;2023-02-11T08:02:16;96462.13;;;2.21;65.20
20013;BME280;10167;42.852;23.042;2023-02-11T08:04:45;96462.47;;;2.35;65.04
20013;BME280;10167;42.852;23.042;2023-02-11T08:07:15;96457.59;;;2.40;64.84
20013;BME280;10167;42.852;23.042;2023-02-11T08:09:45;96460.97;;;2.33;64.57
20013;BME280;10167;42.852;23.042;2023-02-11T08:12:15;96465.72;;;2.37;64.12
20013;BME280;10167;42.852;23.042;2023-02-11T08:14:44;96455.72;;;2.33;66.63
20013;BME280;10167;42.852;23.042;2023-02-11T08:17:14;96462.28;;;2.19;63.74
20013;BME280;10167;42.852;23.042;2023-02-11T08:19:44;96454.56;;;2.45;64.71
20013;BME280;10167;42.852;23.042;2023-02-11T08:22:13;96455.06;;;2.48;62.25
20013;BME280;10167;42.852;23.042;2023-02-11T08:24:42;96447.81;;;2.60;63.66
20013;BME280;10167;42.852;23.042;2023-02-11T08:27:12;96455.44;;;2.36;60.91
20013;BME280;10167;42.852;23.042;2023-02-11T08:29:41;96450.19;;;2.18;63.03
20013;BME280;10167;42.852;23.042;2023-02-11T08:32:10;96446.09;;;2.51;61.38
20013;BME280;10167;42.852;23.042;2023-02-11T08:34:40;96451.75;;;2.29;61.27
20013;BME280;10167;42.852;23.042;2023-02-11T08:37:09;96449.47;;;2.43;61.27
20013;BME280;10167;42.852;23.042;2023-02-11T08:39:39;96450.22;;;2.36;61.20
20013;BME280;10167;42.852;23.042;2023-02-11T08:42:08;96450.97;;;2.64;58.96
20013;BME280;10167;42.852;23.042;2023-02-11T08:44:38;96449.38;;;2.88;58.21
20013;BME280;10167;42.852;23.042;2023-02-11T08:47:08;96449.41;;;2.71;56.87
20013;BME280;10167;42.852;23.042;2023-02-11T08:49:37;96454.34;;;2.91;57.62
20013;BME280;10167;42.852;23.042;2023-02-11T08:52:09;96457.88;;;3.08;57.07
20013;BME280;10167;42.852;23.042;2023-02-11T08:54:38;96453.38;;;2.57;57.33
20013;BME280;10167;42.852;23.042;2023-02-11T08:57:07;96461.50;;;2.89;56.73
20013;BME280;10167;42.852;23.042;2023-02-11T08:59:37;96449.34;;;3.06;55.17
20013;BME280;10167;42.852;23.042;2023-02-11T09:02:10;96451.19;;;2.88;56.99
20013;BME280;10167;42.852;23.042;2023-02-11T09:04:39;96451.56;;;2.93;55.49
20013;BME280;10167;42.852;23.042;2023-02-11T09:07:10;96444.59;;;3.02;54.93
20013;BME280;10167;42.852;23.042;2023-02-11T09:09:41;96449.94;;;3.18;53.10
20013;BME280;10167;42.852;23.042;2023-02-11T09:12:10;96444.66;;;3.10;54.51
20013;BME280;10167;42.852;23.042;2023-02-11T09:14:39;96446.09;;;3.30;53.22
20013;BME280;10167;42.852;23.042;2023-02-11T09:17:09;96444.34;;;3.13;52.24
20013;BME280;10167;42.852;23.042;2023-02-11T09:19:38;96445.53;;;3.18;53.63
20013;BME280;10167;42.852;23.042;2023-02-11T09:22:07;96444.34;;;3.64;51.48
20013;BME280;10167;42.852;23.042;2023-02-11T09:24:39;96446.97;;;3.39;51.37
20013;BME280;10167;42.852;23.042;2023-02-11T09:27:09;96444.84;;;3.68;50.63
20013;BME280;10167;42.852;23.042;2023-02-11T09:29:38;96433.09;;;3.72;51.38
20013;BME280;10167;42.852;23.042;2023-02-11T09:32:07;96440.50;;;4.27;51.32
20013;BME280;10167;42.852;23.042;2023-02-11T09:34:38;96429.41;;;3.91;48.42
20013;BME280;10167;42.852;23.042;2023-02-11T09:37:07;96433.56;;;4.18;49.62
20013;BME280;10167;42.852;23.042;2023-02-11T09:39:38;96425.38;;;4.05;49.88
20013;BME280;10167;42.852;23.042;2023-02-11T09:42:39;96431.97;;;4.17;50.37
20013;BME280;10167;42.852;23.042;2023-02-11T09:45:16;96414.38;;;4.09;50.63
20013;BME280;10167;42.852;23.042;2023-02-11T09:47:49;96425.41;;;4.29;49.38
20013;BME280;10167;42.852;23.042;2023-02-11T09:50:28;96410.56;;;4.54;50.67
20013;BME280;10167;42.852;23.042;2023-02-11T09:53:01;96415.44;;;4.24;49.75
20013;BME280;10167;42.852;23.042;2023-02-11T09:55:34;96403.19;;;4.98;47.54
20013;BME280;10167;42.852;23.042;2023-02-11T09:58:11;96395.81;;;4.93;48.24
20013;BME280;10167;42.852;23.042;2023-02-11T10:00:44;96396.63;;;5.02;46.92
20013;BME280;10167;42.852;23.042;2023-02-11T10:06:39;96380.63;;;5.44;45.96
20013;BME280;10167;42.852;23.042;2023-02-11T10:09:18;96377.81;;;5.62;46.41
20013;BME280;10167;42.852;23.042;2023-02-11T10:12:00;96370.91;;;5.61;46.64
20013;BME280;10167;42.852;23.042;2023-02-11T10:14:54;96367.25;;;5.70;46.06
20013;BME280;10167;42.852;23.042;2023-02-11T10:17:36;96348.28;;;5.91;44.25
20013;BME280;10167;42.852;23.042;2023-02-11T10:20:18;96356.38;;;5.81;45.86
20013;BME280;10167;42.852;23.042;2023-02-11T10:22:52;96352.75;;;5.35;45.01
20013;BME280;10167;42.852;23.042;2023-02-11T10:25:23;96339.25;;;5.93;43.94
20013;BME280;10167;42.852;23.042;2023-02-11T10:27:56;96326.38;;;5.98;44.60
20013;BME280;10167;42.852;23.042;2023-02-11T10:30:31;96325.16;;;6.17;42.31
20013;BME280;10167;42.852;23.042;2023-02-11T10:33:04;96324.97;;;5.79;44.54
20013;BME280;10167;42.852;23.042;2023-02-11T10:35:40;96309.44;;;6.09;42.19
20013;BME280;10167;42.852;23.042;2023-02-11T10:38:10;96306.03;;;6.23;43.06
20013;BME280;10167;42.852;23.042;2023-02-11T10:40:40;96307.00;;;6.22;42.03
20013;BME280;10167;42.852;23.042;2023-02-11T10:43:13;96311.34;;;6.38;41.88
20013;BME280;10167;42.852;23.042;2023-02-11T10:45:47;96303.28;;;6.62;42.40
20013;BME280;10167;42.852;23.042;2023-02-11T10:48:38;96299.00;;;6.61;41.45
20013;BME280;10167;42.852;23.042;2023-02-11T10:51:16;96290.06;;;6.85;41.80
20013;BME280;10167;42.852;23.042;2023-02-11T10:53:47;96294.78;;;6.75;41.29
20013;BME280;10167;42.852;23.042;2023-02-11T10:56:25;96288.69;;;6.89;40.66
20013;BME280;10167;42.852;23.042;2023-02-11T10:58:59;96282.81;;;6.49;42.90
20013;BME280;10167;42.852;23.042;2023-02-11T11:01:41;96287.69;;;6.75;41.07
20013;BME280;10167;42.852;23.042;2023-02-11T11:04:39;96284.75;;;6.70;40.18
20013;BME280;10167;42.852;23.042;2023-02-11T11:07:15;96269.44;;;6.74;40.82
20013;BME280;10167;42.852;23.042;2023-02-11T11:09:50;96264.78;;;6.61;41.29
20013;BME280;10167;42.852;23.042;2023-02-11T11:12:29;96274.47;;;7.42;40.45
20013;BME280;10167;42.852;23.042;2023-02-11T11:15:10;96263.50;;;7.09;41.51
20013;BME280;10167;42.852;23.042;2023-02-11T11:17:43;96266.00;;;7.03;41.18
20013;BME280;10167;42.852;23.042;2023-02-11T11:20:17;96254.03;;;7.15;41.63
20013;BME280;10167;42.852;23.042;2023-02-11T11:22:48;96255.75;;;7.08;41.37
20013;BME280;10167;42.852;23.042;2023-02-11T11:25:25;96256.19;;;6.82;41.83
20013;BME280;10167;42.852;23.042;2023-02-11T11:27:58;96250.50;;;7.08;40.19
20013;BME280;10167;42.852;23.042;2023-02-11T11:30:37;96253.78;;;7.10;41.93
20013;BME280;10167;42.852;23.042;2023-02-11T11:33:18;96251.22;;;7.16;41.40
20013;BME280;10167;42.852;23.042;2023-02-11T11:36:00;96248.41;;;7.33;40.73
20013;BME280;10167;42.852;23.042;2023-02-11T11:38:31;96243.91;;;7.62;40.20
20013;BME280;10167;42.852;23.042;2023-02-11T11:41:18;96246.31;;;6.99;40.81
20013;BME280;10167;42.852;23.042;2023-02-11T11:43:59;96243.59;;;7.07;41.25
20013;BME280;10167;42.852;23.042;2023-02-11T11:46:33;96235.75;;;7.13;40.32
20013;BME280;10167;42.852;23.042;2023-02-11T11:49:20;96223.41;;;7.28;39.90
20013;BME280;10167;42.852;23.042;2023-02-11T11:51:57;96219.53;;;7.60;37.91
20013;BME280;10167;42.852;23.042;2023-02-11T11:54:33;96218.66;;;7.53;37.92
20013;BME280;10167;42.852;23.042;2023-02-11T11:57:05;96215.78;;;7.19;38.69
20013;BME280;10167;42.852;23.042;2023-02-11T11:59:39;96216.72;;;6.97;38.63
20013;BME280;10167;42.852;23.042;2023-02-11T12:02:39;96211.44;;;6.97;38.70
20013;BME280;10167;42.852;23.042;2023-02-11T12:05:17;96213.81;;;6.77;39.56
20013;BME280;10167;42.852;23.042;2023-02-11T12:08:01;96206.31;;;6.51;39.50
20013;BME280;10167;42.852;23.042;2023-02-11T12:10:49;96206.59;;;6.41;40.78
20013;BME280;10167;42.852;23.042;2023-02-11T12:13:36;96194.41;;;6.40;40.69
20013;BME280;10167;42.852;23.042;2023-02-11T12:16:19;96180.81;;;6.51;39.14
20013;BME280;10167;42.852;23.042;2023-02-11T12:19:13;96175.31;;;6.09;40.66
20013;BME280;10167;42.852;23.042;2023-02-11T12:21:54;96168.19;;;6.47;41.54
20013;BME280;10167;42.852;23.042;2023-02-11T12:24:46;96172.09;;;6.36;40.40
20013;BME280;10167;42.852;23.042;2023-02-11T12:27:31;96161.19;;;6.25;38.69
20013;BME280;10167;42.852;23.042;2023-02-11T12:32:48;96152.72;;;6.14;41.00
20013;BME280;10167;42.852;23.042;2023-02-11T12:35:33;96147.00;;;6.11;41.39
20013;BME280;10167;42.852;23.042;2023-02-11T12:38:20;96147.06;;;5.57;41.65
20013;BME280;10167;42.852;23.042;2023-02-11T12:41:00;96145.91;;;5.60;42.29
20013;BME280;10167;42.852;23.042;2023-02-11T12:43:35;96151.22;;;5.74;41.92
20013;BME280;10167;42.852;23.042;2023-02-11T12:46:15;96154.28;;;5.63;41.56
20013;BME280;10167;42.852;23.042;2023-02-11T12:49:02;96144.09;;;5.37;41.86
20013;BME280;10167;42.852;23.042;2023-02-11T12:51:52;96145.25;;;5.35;41.70
20013;BME280;10167;42.852;23.042;2023-02-11T12:54:27;96148.41;;;5.30;40.09
20013;BME280;10167;42.852;23.042;2023-02-11T12:57:00;96133.69;;;5.44;39.50
20013;BME280;10167;42.852;23.042;2023-02-11T12:59:37;96139.09;;;5.20;40.93
20013;BME280;10167;42.852;23.042;2023-02-11T13:02:22;96129.41;;;5.20;41.49
20013;BME280;10167;42.852;23.042;2023-02-11T13:04:55;96125.03;;;5.13;42.43
20013;BME280;10167;42.852;23.042;2023-02-11T13:07:30;96130.16;;;5.06;41.87
20013;BME280;10167;42.852;23.042;2023-02-11T13:10:06;96124.47;;;5.25;42.28
20013;BME280;10167;42.852;23.042;2023-02-11T13:12:45;96120.03;;;5.26;42.33
20013;BME280;10167;42.852;23.042;2023-02-11T13:15:35;96114.84;;;5.63;42.20
20013;BME280;10167;42.852;23.042;2023-02-11T13:18:18;96127.50;;;5.60;43.00
20013;BME280;10167;42.852;23.042;2023-02-11T13:20:58;96122.03;;;5.46;42.50
20013;BME280;10167;42.852;23.042;2023-02-11T13:23:37;96120.91;;;5.87;42.05
20013;BME280;10167;42.852;23.042;2023-02-11T13:26:15;96110.13;;;6.19;40.83
20013;BME280;10167;42.852;23.042;2023-02-11T13:28:50;96103.69;;;6.66;40.50
20013;BME280;10167;42.852;23.042;2023-02-11T13:31:22;96106.03;;;6.61;38.77
20013;BME280;10167;42.852;23.042;2023-02-11T13:33:54;96105.59;;;6.57;39.07
20013;BME280;10167;42.852;23.042;2023-02-11T13:36:24;96091.44;;;6.58;39.86
20013;BME280;10167;42.852;23.042;2023-02-11T13:39:04;96104.19;;;5.79;41.43